Terminal Aerodrome Forecast
Issued by NWS Birmingham, AL

Home | Current Version | Previous Version | Text Only | Print | Product List | Glossary On
Versions: 1 2 3 4 5 6 7 8 9 10 11 12 13 14 15 16 17 18 19 20 21 22 23 24
000
FTUS44 KBMX 281738
TAFBHM
TAF
KBHM 281738Z 2818/2918 12005KT 5SM SHRA VCTS BKN025 BKN035CB
      TEMPO 2818/2822 2SM +TSRA
     FM290200 11004KT P6SM OVC050
     FM291000 VRB03KT 5SM BR BKN010
     FM291500 16004KT P6SM BKN250=

USA.gov is the U.S. government's official web portal to all federal, state and local government web resources and services.